Time;durP1;ratioP1;P1;durP2;ratioP2;P2;SDS_P1;SDS_P2;PMS_P1;PMS_P2;Temp;Humidity;BMP_temperature;BMP_pressure;BME280_temperature;BME280_humidity;BME280_pressure;Samples;Min_cycle;Max_cycle;Signal;HPM_P1;HPM_P2
2021/12/25 00:00:54;;;;;;;1.45;0.50;;;;;;;-0.08;55.74;100367.31;5074101;28;20033;-77
2021/12/25 00:03:20;;;;;;;1.50;0.60;;;;;;;-0.09;55.47;100370.19;5078557;28;20042;-77
2021/12/25 00:05:47;;;;;;;3.20;0.30;;;;;;;-0.06;55.63;100373.25;5085476;28;20488;-77
2021/12/25 00:08:13;;;;;;;1.13;0.40;;;;;;;-0.10;55.67;100369.38;5067615;28;20031;-77
2021/12/25 00:10:39;;;;;;;1.08;0.30;;;;;;;-0.12;55.63;100371.44;5064899;28;20027;-77
2021/12/25 00:13:04;;;;;;;2.72;0.22;;;;;;;-0.18;56.26;100364.25;5082114;28;20045;-77
2021/12/25 00:15:30;;;;;;;0.82;0.47;;;;;;;-0.25;56.57;100360.78;5080255;28;20084;-77
2021/12/25 00:17:55;;;;;;;1.95;0.40;;;;;;;-0.34;56.70;100372.78;5064104;28;20032;-77
2021/12/25 00:20:20;;;;;;;0.80;0.30;;;;;;;-0.45;56.25;100383.13;5084107;28;20485;-77
2021/12/25 00:22:46;;;;;;;0.95;0.32;;;;;;;-0.55;56.98;100390.75;5067545;28;20043;-77
2021/12/25 00:25:12;;;;;;;0.63;0.32;;;;;;;-0.68;57.38;100388.97;5078770;28;20049;-77
2021/12/25 00:27:49;;;;;;;2.33;0.30;;;;;;;-0.80;56.93;100389.81;5065492;28;20032;-77
2021/12/25 00:30:32;;;;;;;0.57;0.35;;;;;;;-0.93;56.85;100402.19;5076275;28;20111;-77
2021/12/25 00:33:18;;;;;;;1.30;0.68;;;;;;;-1.04;57.18;100405.47;5075297;28;20031;-77
2021/12/25 00:35:43;;;;;;;1.80;0.60;;;;;;;-1.17;57.00;100400.16;5080292;28;20114;-77
2021/12/25 00:38:08;;;;;;;0.47;0.30;;;;;;;-1.23;57.31;100406.28;5063595;28;20051;-77
2021/12/25 00:40:34;;;;;;;0.65;0.25;;;;;;;-1.29;57.35;100407.13;5087445;28;20027;-77
2021/12/25 00:42:59;;;;;;;1.35;0.60;;;;;;;-1.36;57.62;100413.28;5082343;28;20028;-77
2021/12/25 00:45:25;;;;;;;2.95;0.40;;;;;;;-1.42;58.20;100408.78;5080978;28;20028;-77
2021/12/25 00:47:50;;;;;;;2.92;0.32;;;;;;;-1.47;58.03;100421.09;5080307;28;20027;-77
2021/12/25 00:50:15;;;;;;;1.83;0.70;;;;;;;-1.54;58.10;100423.75;5085927;28;20089;-77
2021/12/25 00:52:41;;;;;;;0.75;0.30;;;;;;;-1.60;58.44;100427.25;5091034;28;20051;-77
2021/12/25 00:55:08;;;;;;;2.95;0.88;;;;;;;-1.68;58.68;100425.59;5071780;28;20039;-77
2021/12/25 00:57:34;;;;;;;1.95;0.57;;;;;;;-1.71;58.83;100436.69;5086054;28;20038;-76
2021/12/25 00:59:59;;;;;;;2.22;0.43;;;;;;;-1.80;58.83;100433.38;5087112;28;20020;-77
2021/12/25 01:02:24;;;;;;;3.38;0.60;;;;;;;-1.86;58.90;100439.50;5084470;28;20435;-77
2021/12/25 01:04:50;;;;;;;2.20;0.43;;;;;;;-1.91;59.04;100438.44;5067679;28;20374;-77
2021/12/25 01:07:15;;;;;;;2.75;0.50;;;;;;;-1.98;59.20;100440.28;5076874;28;20029;-77
2021/12/25 01:09:41;;;;;;;1.63;0.50;;;;;;;-2.03;59.13;100446.22;5073194;28;20031;-76
2021/12/25 01:12:08;;;;;;;1.08;0.50;;;;;;;-2.08;58.97;100456.69;5087133;28;20427;-77
2021/12/25 01:14:40;;;;;;;0.85;0.73;;;;;;;-2.11;58.92;100462.44;5086171;28;20035;-77
2021/12/25 01:20:38;;;;;;;2.47;0.52;;;;;;;-2.22;59.21;100471.00;5089087;28;20027;-77
2021/12/25 01:38:07;;;;;;;1.20;0.47;;;;;;;-2.71;59.73;100505.59;5084002;28;20024;-76
2021/12/25 01:48:34;;;;;;;0.63;0.55;;;;;;;-2.94;59.90;100519.16;5076722;28;20546;-77
2021/12/25 01:51:00;;;;;;;2.25;1.00;;;;;;;-2.97;59.62;100526.72;5086460;28;20024;-76
2021/12/25 01:53:25;;;;;;;1.70;0.52;;;;;;;-3.01;59.77;100530.78;5090633;28;20031;-76
2021/12/25 01:55:51;;;;;;;3.75;0.70;;;;;;;-3.06;60.22;100534.00;5090291;28;20024;-77
2021/12/25 01:58:16;;;;;;;2.20;0.82;;;;;;;-3.12;60.37;100532.94;5066248;28;20024;-77
2021/12/25 02:00:47;;;;;;;1.83;0.68;;;;;;;-3.14;59.96;100539.47;5081137;28;20024;-77
2021/12/25 02:03:14;;;;;;;1.90;0.65;;;;;;;-3.19;60.42;100542.72;5077529;28;20103;-77
2021/12/25 02:05:39;;;;;;;1.38;0.85;;;;;;;-3.22;60.35;100539.59;5090065;28;20032;-77
2021/12/25 02:08:05;;;;;;;2.95;0.73;;;;;;;-3.26;60.36;100546.34;5079188;28;20028;-76
2021/12/25 02:10:30;;;;;;;1.65;1.00;;;;;;;-3.28;61.00;100551.00;5087966;28;20081;-76
2021/12/25 02:12:56;;;;;;;1.00;0.55;;;;;;;-3.31;60.35;100546.06;5086294;28;20044;-76
2021/12/25 02:15:24;;;;;;;1.55;0.70;;;;;;;-3.33;60.85;100540.91;5071833;28;20040;-76
2021/12/25 02:18:06;;;;;;;0.70;0.60;;;;;;;-3.36;60.57;100539.47;5061119;28;20103;-77
2021/12/25 02:20:43;;;;;;;1.00;0.70;;;;;;;-3.39;60.63;100550.50;5077050;28;20089;-77
2021/12/25 02:23:15;;;;;;;0.80;0.40;;;;;;;-3.41;60.35;100547.22;5065730;28;20020;-77
2021/12/25 02:25:40;;;;;;;;;;;;;;;-3.41;60.04;100555.19;5073939;28;21973;-77
2021/12/25 02:28:06;;;;;;;0.70;0.50;;;;;;;-3.44;60.42;100558.25;5084721;28;20380;-77
2021/12/25 02:30:31;;;;;;;0.98;0.65;;;;;;;-3.48;60.08;100559.63;5067006;28;20042;-76
2021/12/25 02:32:58;;;;;;;1.75;0.55;;;;;;;-3.52;59.66;100563.69;5090554;28;20194;-76
2021/12/25 02:35:24;;;;;;;3.20;0.70;;;;;;;-3.52;59.77;100566.34;5092496;28;20434;-76
2021/12/25 02:37:50;;;;;;;1.30;1.20;;;;;;;-3.54;59.74;100570.22;5082696;28;20024;-77
2021/12/25 02:40:15;;;;;;;1.63;0.47;;;;;;;-3.55;60.35;100568.53;5081974;28;20081;-77
2021/12/25 02:42:41;;;;;;;0.82;0.50;;;;;;;-3.60;59.88;100564.63;5086028;28;20028;-77
2021/12/25 02:45:06;;;;;;;0.68;0.40;;;;;;;-3.62;60.15;100566.63;5085597;28;20066;-77
2021/12/25 02:47:32;;;;;;;1.75;0.70;;;;;;;-3.66;59.63;100576.00;5082039;28;20067;-77
2021/12/25 02:49:58;;;;;;;1.13;0.55;;;;;;;-3.67;60.02;100571.69;5089460;28;20101;-77
2021/12/25 02:52:23;;;;;;;1.73;0.88;;;;;;;-3.70;59.73;100572.06;5077862;28;20028;-77
2021/12/25 02:54:48;;;;;;;1.77;0.70;;;;;;;-3.72;60.32;100574.06;5076861;28;20347;-77
2021/12/25 02:57:14;;;;;;;1.23;0.50;;;;;;;-3.75;59.93;100578.97;5074652;28;20063;-76
2021/12/25 02:59:40;;;;;;;0.85;0.60;;;;;;;-3.76;60.68;100575.47;5073873;28;20035;-77
2021/12/25 03:02:10;;;;;;;1.80;0.57;;;;;;;-3.77;60.27;100573.81;5077116;28;20099;-77
2021/12/25 03:04:38;;;;;;;2.72;0.65;;;;;;;-3.79;60.46;100573.19;5084246;28;20039;-77
2021/12/25 03:07:03;;;;;;;0.90;0.47;;;;;;;-3.80;60.28;100576.84;5078103;28;20062;-77
2021/12/25 03:09:30;;;;;;;1.40;0.63;;;;;;;-3.83;60.38;100580.69;5082459;28;20077;-77
2021/12/25 03:11:59;;;;;;;2.78;0.73;;;;;;;-3.84;60.36;100580.91;5078992;28;20396;-77
2021/12/25 03:14:35;;;;;;;2.97;0.77;;;;;;;-3.87;60.43;100578.59;5084088;28;20111;-77
2021/12/25 03:17:02;;;;;;;0.88;0.55;;;;;;;-3.90;60.27;100582.47;5075941;28;20043;-77
2021/12/25 03:19:32;;;;;;;2.22;0.70;;;;;;;-3.91;60.54;100587.97;5076553;28;20073;-77
2021/12/25 03:22:01;;;;;;;1.40;0.57;;;;;;;-3.93;60.44;100581.97;5045609;28;20020;-77
2021/12/25 03:24:27;;;;;;;2.20;0.68;;;;;;;-3.95;60.67;100587.50;5072940;28;20120;-77
2021/12/25 03:26:56;;;;;;;1.05;0.60;;;;;;;-3.97;60.60;100594.03;5082596;28;20389;-77
2021/12/25 03:29:25;;;;;;;2.08;0.50;;;;;;;-3.99;61.14;100596.03;5072712;28;20786;-77
2021/12/25 03:31:51;;;;;;;0.82;0.55;;;;;;;-4.02;61.43;100608.69;5077079;28;20028;-77
2021/12/25 03:34:16;;;;;;;0.73;0.50;;;;;;;-4.03;60.93;100607.06;5074194;28;20062;-76
2021/12/25 03:36:42;;;;;;;3.33;0.90;;;;;;;-4.06;61.55;100606.59;5075928;28;20411;-77
2021/12/25 03:39:07;;;;;;;1.73;0.50;;;;;;;-4.08;61.09;100606.78;5073354;28;20058;-77
2021/12/25 03:41:33;;;;;;;2.05;0.60;;;;;;;-4.09;61.36;100609.63;5071195;28;20028;-77
2021/12/25 03:44:00;;;;;;;1.92;0.52;;;;;;;-4.12;61.50;100612.63;5071162;28;20049;-77
2021/12/25 03:46:28;;;;;;;0.98;0.70;;;;;;;-4.16;60.80;100614.84;5070073;28;20127;-76
2021/12/25 03:59:16;;;;;;;2.17;0.70;;;;;;;-4.30;61.60;100608.50;5071030;28;20082;-77
2021/12/25 04:01:51;;;;;;;1.75;0.75;;;;;;;-4.29;61.92;100606.66;5070704;28;20028;-77
2021/12/25 04:04:34;;;;;;;3.30;0.52;;;;;;;-4.28;61.60;100608.31;5056708;28;20484;-77
2021/12/25 04:07:06;;;;;;;1.90;0.60;;;;;;;-4.29;61.45;100607.47;5059710;28;20472;-77
2021/12/25 04:09:34;;;;;;;1.95;0.60;;;;;;;-4.30;61.77;100610.34;5053441;28;20110;-77
2021/12/25 04:12:02;;;;;;;0.93;0.60;;;;;;;-4.32;62.28;100615.00;5069785;28;20119;-77
2021/12/25 04:14:27;;;;;;;1.30;1.15;;;;;;;-4.32;62.23;100618.47;5069158;28;20042;-77
2021/12/25 04:16:55;;;;;;;0.95;0.50;;;;;;;-4.32;61.99;100633.63;5063576;28;20032;-77
2021/12/25 04:19:23;;;;;;;1.52;0.73;;;;;;;-4.31;62.01;100630.81;5069725;28;20043;-77
2021/12/25 04:21:59;;;;;;;1.85;0.50;;;;;;;-4.31;62.25;100643.25;5054854;28;20085;-77
2021/12/25 04:24:28;;;;;;;2.38;0.82;;;;;;;-4.34;62.58;100647.13;5070360;28;20639;-77
2021/12/25 04:26:53;;;;;;;1.67;1.08;;;;;;;-4.35;62.40;100644.63;5069772;28;20072;-76
2021/12/25 05:01:43;;;;;;;0.80;0.60;;;;;;;-4.77;63.37;100657.44;5069885;28;20023;-77
2021/12/25 05:04:14;;;;;;;2.25;0.50;;;;;;;-4.92;63.02;100675.97;5068443;28;20030;-77
2021/12/25 05:06:39;;;;;;;;;;;;;;;-4.93;62.89;100673.50;5069719;28;20641;-76
2021/12/25 05:09:04;;;;;;;1.08;0.52;;;;;;;-4.93;63.44;100668.19;5070288;28;19916;-77
2021/12/25 05:11:30;;;;;;;1.98;0.55;;;;;;;-4.93;63.38;100671.66;5069712;28;22036;-77
2021/12/25 05:13:56;;;;;;;0.80;0.55;;;;;;;-4.94;63.25;100670.00;5068211;28;20056;-77
2021/12/25 05:16:22;;;;;;;2.70;0.68;;;;;;;-4.95;63.86;100660.34;5061724;28;20075;-77
2021/12/25 05:18:47;;;;;;;2.03;0.70;;;;;;;-4.95;63.41;100668.34;5068392;28;20020;-77
2021/12/25 05:21:13;;;;;;;2.30;0.43;;;;;;;-4.91;63.93;100660.84;5055136;28;20042;-77
2021/12/25 05:23:39;;;;;;;1.60;0.68;;;;;;;-4.91;63.68;100660.84;5069457;28;20035;-76
2021/12/25 05:26:05;;;;;;;2.97;0.70;;;;;;;-4.88;63.63;100664.97;5061545;28;20076;-77
2021/12/25 05:28:39;;;;;;;1.85;0.52;;;;;;;-4.86;64.23;100668.28;5068865;28;20548;-77
2021/12/25 05:31:09;;;;;;;0.88;0.55;;;;;;;-4.81;63.80;100671.25;5055227;28;20101;-77
2021/12/25 05:33:35;;;;;;;3.90;0.68;;;;;;;-4.78;63.76;100676.22;5067894;28;20028;-77
2021/12/25 05:36:00;;;;;;;2.35;0.60;;;;;;;-4.78;64.15;100686.84;5069181;28;20059;-76
2021/12/25 05:38:27;;;;;;;2.17;0.50;;;;;;;-4.78;64.40;100687.66;5068661;28;20047;-77
2021/12/25 05:40:53;;;;;;;0.70;0.43;;;;;;;-4.80;64.56;100694.16;5068383;28;20032;-77
2021/12/25 05:43:18;;;;;;;3.80;1.17;;;;;;;-4.83;64.46;100702.50;5053039;28;20027;-77
2021/12/25 05:45:44;;;;;;;4.47;2.17;;;;;;;-4.88;64.41;100702.19;5053126;28;20035;-77
2021/12/25 05:48:09;;;;;;;1.38;0.47;;;;;;;-4.94;64.50;100701.91;5068380;28;20028;-77
2021/12/25 05:50:35;;;;;;;1.17;0.57;;;;;;;-4.94;64.23;100703.72;5068833;28;20020;-77
2021/12/25 05:53:01;;;;;;;1.10;0.45;;;;;;;-4.97;64.81;100704.91;5068021;28;20215;-77
2021/12/25 05:55:27;;;;;;;1.65;0.60;;;;;;;-5.00;64.82;100699.94;5068301;28;20040;-77
2021/12/25 05:57:52;;;;;;;0.80;0.52;;;;;;;-5.05;64.57;100707.59;5053984;28;20059;-77
2021/12/25 06:00:18;;;;;;;68.88;23.90;;;;;;;-5.09;64.31;100700.16;5072710;28;20029;-77
2021/12/25 06:02:44;;;;;;;29.65;10.15;;;;;;;-5.15;64.66;100702.50;5072367;28;20058;-77
2021/12/25 06:05:09;;;;;;;6.45;1.90;;;;;;;-5.20;64.51;100701.38;5072270;28;20025;-77
2021/12/25 06:07:35;;;;;;;1.27;0.75;;;;;;;-5.26;65.16;100699.41;5072052;28;20049;-77
2021/12/25 06:10:00;;;;;;;1.85;0.60;;;;;;;-5.31;64.84;100713.19;5072337;28;20024;-77
2021/12/25 06:12:27;;;;;;;1.77;0.65;;;;;;;-5.37;64.87;100709.41;5082066;28;20040;-76
2021/12/25 06:14:54;;;;;;;0.90;0.60;;;;;;;-5.42;65.13;100713.56;5070947;28;20481;-77
2021/12/25 06:17:19;;;;;;;2.15;0.70;;;;;;;-5.45;65.13;100706.78;5070182;28;20036;-77
2021/12/25 06:19:45;;;;;;;1.25;0.80;;;;;;;-5.46;65.63;100710.41;5072196;28;20020;-77
2021/12/25 06:22:10;;;;;;;1.95;0.50;;;;;;;-5.47;65.24;100708.78;5072718;28;22085;-77
2021/12/25 06:24:35;;;;;;;1.80;0.55;;;;;;;-5.49;65.25;100704.63;5073672;28;20039;-78
2021/12/25 06:27:01;;;;;;;2.35;0.88;;;;;;;-5.52;65.67;100700.47;5071465;28;20024;-77
2021/12/25 06:29:26;;;;;;;3.10;0.80;;;;;;;-5.52;65.79;100699.66;5057584;28;20024;-77
2021/12/25 06:31:52;;;;;;;1.70;0.90;;;;;;;-5.51;65.90;100702.16;5072164;28;20043;-77
2021/12/25 06:34:19;;;;;;;2.08;0.88;;;;;;;-5.55;65.90;100700.00;5072362;28;20058;-77
2021/12/25 06:36:44;;;;;;;0.75;0.52;;;;;;;-5.58;65.46;100706.47;5072330;28;20052;-77
2021/12/25 06:39:14;;;;;;;2.53;0.70;;;;;;;-5.60;66.13;100714.59;5071055;28;20435;-77
2021/12/25 06:41:42;;;;;;;1.65;0.80;;;;;;;-5.56;66.11;100701.84;5071397;28;20036;-77
2021/12/25 06:44:08;;;;;;;1.38;0.80;;;;;;;-5.54;65.85;100705.13;5070065;28;20070;-77
2021/12/25 06:46:33;;;;;;;1.20;0.90;;;;;;;-5.55;65.79;100708.78;5072983;28;20023;-77
2021/12/25 06:48:59;;;;;;;2.15;1.23;;;;;;;-5.59;66.17;100712.81;5075401;28;20036;-77
2021/12/25 06:51:24;;;;;;;1.73;0.73;;;;;;;-5.61;65.74;100701.50;5081804;28;20146;-77
2021/12/25 06:53:49;;;;;;;0.82;0.50;;;;;;;-5.63;66.60;100708.81;5083617;28;20419;-77
2021/12/25 06:56:15;;;;;;;2.55;0.70;;;;;;;-5.67;66.44;100707.50;5073755;28;20126;-77
2021/12/25 06:58:40;;;;;;;1.23;0.60;;;;;;;-5.71;66.23;100700.88;5081295;28;20050;-77
2021/12/25 07:01:06;;;;;;;3.50;0.80;;;;;;;-5.73;66.58;100703.72;5081937;28;20040;-77
2021/12/25 07:03:33;;;;;;;2.63;0.73;;;;;;;-5.74;66.38;100703.88;5081207;28;20083;-77
2021/12/25 07:05:58;;;;;;;1.58;0.70;;;;;;;-5.77;66.59;100709.53;5089233;28;20035;-77
2021/12/25 07:08:23;;;;;;;1.38;0.80;;;;;;;-5.77;66.47;100712.19;5084673;28;20027;-77
2021/12/25 07:10:49;;;;;;;2.78;0.88;;;;;;;-5.81;66.55;100706.38;5069756;28;20028;-77
2021/12/25 07:13:19;;;;;;;1.77;0.80;;;;;;;-5.81;66.83;100706.38;5078008;28;20036;-77
2021/12/25 07:15:45;;;;;;;1.20;0.52;;;;;;;-5.80;67.12;100698.22;5083805;28;20030;-77
2021/12/25 07:18:11;;;;;;;0.88;0.50;;;;;;;-5.78;66.63;100703.38;5086468;28;20024;-77
2021/12/25 07:20:37;;;;;;;1.33;0.70;;;;;;;-5.81;66.91;100707.19;5083724;28;20031;-77
2021/12/25 07:23:02;;;;;;;1.40;0.60;;;;;;;-5.83;66.75;100703.88;5080811;28;20028;-77
2021/12/25 07:25:29;;;;;;;2.17;0.40;;;;;;;-5.83;67.34;100705.72;5080783;28;20567;-77
2021/12/25 07:27:55;;;;;;;1.35;0.60;;;;;;;-5.83;67.05;100713.69;5082553;28;20111;-77
2021/12/25 07:30:20;;;;;;;3.10;0.75;;;;;;;-5.86;66.99;100720.16;5082512;28;20024;-77
2021/12/25 07:32:46;;;;;;;1.55;0.80;;;;;;;-5.92;66.90;100719.97;5066180;28;20024;-76
2021/12/25 07:35:11;;;;;;;3.10;1.20;;;;;;;-6.04;67.26;100722.19;5080858;28;20032;-77
2021/12/25 07:37:37;;;;;;;2.00;1.10;;;;;;;-6.07;67.15;100725.19;5082535;28;20032;-77
2021/12/25 07:40:04;;;;;;;3.03;1.63;;;;;;;-6.08;67.41;100723.53;5077701;28;20035;-77
2021/12/25 07:42:30;;;;;;;1.85;0.70;;;;;;;-6.04;67.18;100732.81;5077978;28;20032;-77
2021/12/25 07:45:02;;;;;;;1.55;0.75;;;;;;;-5.86;67.34;100733.44;5066680;28;20369;-77
2021/12/25 07:47:31;;;;;;;1.08;0.60;;;;;;;-5.76;67.11;100729.75;5081105;28;20054;-76
2021/12/25 07:49:59;;;;;;;2.78;0.60;;;;;;;-5.80;67.54;100730.09;5078188;28;20043;-77
2021/12/25 07:52:27;;;;;;;0.32;0.30;;;;;;;-5.78;67.04;100732.59;5076186;28;20063;-76
2021/12/25 07:54:53;;;;;;;1.08;0.50;;;;;;;-5.81;66.96;100733.75;5071213;28;20384;-76
2021/12/25 07:57:18;;;;;;;0.85;0.52;;;;;;;-5.80;67.39;100730.09;5071177;28;20032;-76
2021/12/25 07:59:43;;;;;;;0.77;0.57;;;;;;;-5.67;67.43;100726.09;5070165;28;20032;-76
2021/12/25 08:02:09;;;;;;;1.23;0.50;;;;;;;-5.59;67.56;100726.09;5071010;28;20055;-77
2021/12/25 08:04:35;;;;;;;1.30;0.65;;;;;;;-5.41;67.70;100724.00;5071510;28;20085;-77
2021/12/25 08:07:00;;;;;;;2.03;0.60;;;;;;;-5.25;67.82;100724.97;5054767;28;20024;-77
2021/12/25 08:09:29;;;;;;;1.33;0.98;;;;;;;-5.16;67.39;100722.13;5071231;28;20032;-77
2021/12/25 08:11:56;;;;;;;1.17;0.63;;;;;;;-4.94;67.92;100725.84;5070138;28;20127;-77
2021/12/25 08:14:25;;;;;;;0.43;0.40;;;;;;;-4.80;68.10;100721.63;5069343;28;20032;-77
2021/12/25 08:16:54;;;;;;;1.35;0.60;;;;;;;-4.53;68.33;100719.44;5036841;28;20037;-77
2021/12/25 08:19:20;;;;;;;3.50;0.73;;;;;;;-4.27;68.01;100721.75;5069321;28;20111;-77
2021/12/25 08:21:46;;;;;;;1.55;0.70;;;;;;;-4.10;68.15;100723.25;5046926;28;21025;-77
2021/12/25 08:24:11;;;;;;;2.47;1.50;;;;;;;-3.95;67.61;100733.16;5047889;28;20121;-77
2021/12/25 08:26:37;;;;;;;4.35;0.77;;;;;;;-3.86;68.24;100729.41;5070110;28;20028;-76
2021/12/25 08:29:02;;;;;;;2.42;0.80;;;;;;;-3.78;67.88;100726.66;5070372;28;20576;-76
2021/12/25 08:31:27;;;;;;;1.65;0.65;;;;;;;-3.74;68.30;100735.09;5069229;28;20024;-72
2021/12/25 08:33:53;;;;;;;3.05;0.90;;;;;;;-3.66;67.92;100740.34;5069300;28;20028;-75
2021/12/25 08:36:18;;;;;;;1.05;0.65;;;;;;;-3.48;68.26;100740.84;5069623;28;20028;-78
2021/12/25 08:38:44;;;;;;;1.05;0.50;;;;;;;-3.30;68.74;100739.63;5070471;28;20147;-77
2021/12/25 08:41:09;;;;;;;1.02;0.50;;;;;;;-3.15;68.73;100738.63;5068724;28;21402;-76
2021/12/25 08:43:44;;;;;;;2.00;0.32;;;;;;;-2.98;68.94;100735.75;5068695;28;20037;-75
2021/12/25 08:46:15;;;;;;;1.27;0.50;;;;;;;-2.80;69.35;100730.84;5069275;28;20556;-77
2021/12/25 08:48:42;;;;;;;3.38;0.60;;;;;;;-2.65;68.81;100738.00;5068211;28;20032;-77
2021/12/25 08:51:07;;;;;;;4.50;2.15;;;;;;;-2.50;69.01;100733.44;5069136;28;20054;-74
2021/12/25 08:53:33;;;;;;;0.73;0.40;;;;;;;-2.34;69.40;100735.88;5069116;28;20032;-76
2021/12/25 08:55:58;;;;;;;6.28;0.60;;;;;;;-2.07;69.41;100731.59;5051751;28;20507;-77
2021/12/25 08:58:25;;;;;;;1.67;0.50;;;;;;;-1.91;69.39;100729.66;5067627;28;20032;-77
2021/12/25 09:00:55;;;;;;;2.85;0.70;;;;;;;-1.91;69.37;100725.16;5067699;28;20219;-77
2021/12/25 09:03:21;;;;;;;0.88;0.70;;;;;;;-2.04;69.52;100725.06;5067180;28;20093;-77
2021/12/25 09:05:47;;;;;;;6.80;0.88;;;;;;;-2.12;69.44;100725.19;5068014;28;20020;-73
2021/12/25 09:08:12;;;;;;;2.05;0.50;;;;;;;-2.20;69.89;100728.81;5069458;28;20036;-74
2021/12/25 09:10:38;;;;;;;3.10;0.65;;;;;;;-2.20;69.53;100728.81;5067168;28;20473;-75
2021/12/25 09:13:03;;;;;;;1.38;0.60;;;;;;;-2.18;69.99;100734.78;5068306;28;20614;-75
2021/12/25 09:15:28;;;;;;;3.28;2.20;;;;;;;-2.12;69.80;100733.19;5069401;28;20165;-76
2021/12/25 09:17:54;;;;;;;3.22;1.65;;;;;;;-2.09;69.93;100738.16;5068048;28;20035;-77
2021/12/25 09:20:20;;;;;;;4.53;0.90;;;;;;;-2.07;69.77;100741.47;5067850;28;20028;-77
2021/12/25 09:22:46;;;;;;;1.85;0.50;;;;;;;-2.03;69.73;100748.06;5069438;28;20036;-77
2021/12/25 09:25:12;;;;;;;1.63;0.50;;;;;;;-1.98;69.94;100745.66;5066899;28;20028;-76
2021/12/25 09:27:37;;;;;;;4.50;1.00;;;;;;;-1.91;70.01;100746.53;5067022;28;20031;-76
2021/12/25 09:30:03;;;;;;;1.13;0.88;;;;;;;-1.90;69.85;100737.50;5068417;28;20039;-77
2021/12/25 09:32:28;;;;;;;2.90;1.00;;;;;;;-1.83;70.13;100749.06;5064718;28;20050;-77
2021/12/25 09:34:54;;;;;;;1.75;0.95;;;;;;;-1.80;70.21;100751.34;5068064;28;20035;-76
2021/12/25 09:37:20;;;;;;;1.60;0.88;;;;;;;-1.73;70.21;100747.91;5068187;28;20845;-76
2021/12/25 09:39:45;;;;;;;1.95;0.93;;;;;;;-1.73;70.00;100753.25;5069255;28;20037;-76
2021/12/25 09:42:11;;;;;;;1.88;1.02;;;;;;;-1.73;70.01;100759.41;5071526;28;20435;-73
2021/12/25 09:44:36;;;;;;;2.38;1.00;;;;;;;-1.72;69.98;100754.88;5075224;28;20360;-74
2021/12/25 09:47:02;;;;;;;1.65;0.90;;;;;;;-1.71;69.85;100751.22;5074365;28;20483;-74
2021/12/25 09:49:28;;;;;;;2.00;0.90;;;;;;;-1.73;70.16;100753.25;5076262;28;20028;-74
2021/12/25 09:51:54;;;;;;;2.10;1.33;;;;;;;-1.74;69.92;100751.59;5081098;28;20028;-76
2021/12/25 09:54:20;;;;;;;1.58;1.20;;;;;;;-1.75;70.03;100757.94;5076758;28;20070;-76
2021/12/25 09:56:46;;;;;;;4.18;1.40;;;;;;;-1.79;70.47;100744.97;5078005;28;20028;-76
2021/12/25 09:59:12;;;;;;;5.38;1.30;;;;;;;-1.77;70.04;100741.28;5078009;28;20481;-76
2021/12/25 10:01:48;;;;;;;6.43;1.13;;;;;;;-1.80;70.25;100742.53;5075607;28;20129;-77
2021/12/25 10:04:34;;;;;;;3.10;1.20;;;;;;;-1.82;70.21;100742.69;5069558;28;20024;-76
2021/12/25 10:07:13;;;;;;;2.03;1.38;;;;;;;-1.79;70.15;100744.97;5078341;28;20028;-76
2021/12/25 10:09:38;;;;;;;4.38;1.70;;;;;;;-1.78;70.54;100743.13;5081838;28;20043;-76
2021/12/25 10:12:08;;;;;;;3.13;1.80;;;;;;;-1.77;70.32;100738.59;5077645;28;20052;-76
2021/12/25 10:14:39;;;;;;;3.38;1.77;;;;;;;-1.75;70.44;100726.69;5077308;28;20065;-76
2021/12/25 10:17:24;;;;;;;3.75;1.67;;;;;;;-1.71;70.47;100729.84;5077818;28;20401;-76
2021/12/25 10:20:13;;;;;;;3.70;1.30;;;;;;;-1.68;70.49;100721.41;5077139;28;20108;-73
2021/12/25 10:23:00;;;;;;;2.22;1.10;;;;;;;-1.55;70.63;100716.16;5077607;28;20034;-74
2021/12/25 10:25:32;;;;;;;1.65;0.57;;;;;;;-1.32;70.98;100723.09;5080109;28;20039;-75
2021/12/25 10:27:59;;;;;;;1.40;0.55;;;;;;;-1.04;71.10;100705.09;5077836;28;20055;-74
2021/12/25 10:30:26;;;;;;;2.13;0.28;;;;;;;-0.75;71.04;100713.88;5074969;28;20119;-74
2021/12/25 10:32:51;;;;;;;1.38;0.22;;;;;;;-0.50;70.93;100716.81;5082467;28;20024;-74
2021/12/25 10:35:21;;;;;;;2.05;0.50;;;;;;;-0.29;70.25;100707.81;5064508;28;20039;-75
2021/12/25 10:37:48;;;;;;;0.40;0.20;;;;;;;-0.09;70.03;100714.00;5077385;28;20027;-75
2021/12/25 10:40:39;;;;;;;1.58;0.40;;;;;;;0.07;69.80;100722.66;5075083;28;20024;-75
2021/12/25 10:43:18;;;;;;;0.60;0.40;;;;;;;0.24;69.48;100706.97;5073788;28;20076;-74
2021/12/25 10:45:57;;;;;;;1.98;0.40;;;;;;;0.39;69.54;100711.09;5077226;28;20119;-76
2021/12/25 10:48:26;;;;;;;3.92;0.45;;;;;;;0.54;68.51;100701.97;5081496;28;20035;-75
2021/12/25 10:50:53;;;;;;;1.73;0.40;;;;;;;0.61;68.74;100708.16;5077901;28;20047;-73
2021/12/25 10:53:26;;;;;;;0.20;0.20;;;;;;;0.69;67.96;100699.06;5080753;28;21794;-75
2021/12/25 10:55:52;;;;;;;3.83;0.85;;;;;;;0.74;67.91;100708.13;5080663;28;20709;-74
2021/12/25 10:58:19;;;;;;;0.52;0.30;;;;;;;0.76;67.87;100707.91;5083794;28;20035;-75
2021/12/25 11:00:53;;;;;;;1.55;0.40;;;;;;;0.84;67.63;100695.06;5063844;28;20031;-76
2021/12/25 11:03:28;;;;;;;5.55;0.35;;;;;;;0.96;67.01;100694.44;5056472;28;20035;-76
2021/12/25 11:05:54;;;;;;;3.10;0.30;;;;;;;0.98;66.71;100706.63;5051490;28;20017;-76
2021/12/25 11:08:21;;;;;;;0.55;0.40;;;;;;;1.06;66.82;100697.47;5066683;28;20060;-78
2021/12/25 11:10:48;;;;;;;1.75;0.40;;;;;;;1.09;66.52;100711.31;5081440;28;20078;-78
2021/12/25 11:13:21;;;;;;;1.15;0.45;;;;;;;1.13;65.47;100695.59;5079559;28;20075;-78
2021/12/25 11:15:49;;;;;;;4.05;0.60;;;;;;;1.16;65.07;100707.78;5076986;28;20036;-78
2021/12/25 11:18:16;;;;;;;0.30;0.30;;;;;;;1.25;64.63;100709.97;5067949;28;20043;-78
2021/12/25 11:20:42;;;;;;;1.85;0.20;;;;;;;1.29;64.41;100715.78;5085310;28;20436;-78
2021/12/25 11:23:09;;;;;;;1.10;0.50;;;;;;;1.28;65.06;100706.91;5087011;28;20074;-78
2021/12/25 11:25:37;;;;;;;4.43;0.40;;;;;;;1.32;64.74;100712.66;5079271;28;20032;-78
2021/12/25 11:28:06;;;;;;;0.75;0.45;;;;;;;1.36;64.87;100708.47;5083046;28;20123;-77
2021/12/25 11:30:32;;;;;;;2.22;0.50;;;;;;;1.42;64.51;100714.84;5058302;28;20020;-78
2021/12/25 11:32:58;;;;;;;1.90;0.70;;;;;;;1.48;63.95;100714.03;5077224;28;20116;-76
2021/12/25 11:35:24;;;;;;;1.13;0.50;;;;;;;1.55;64.28;100709.41;5083458;28;20116;-78
2021/12/25 11:37:50;;;;;;;1.15;0.38;;;;;;;1.60;63.56;100709.59;5077202;28;21008;-78
2021/12/25 11:40:18;;;;;;;2.80;0.40;;;;;;;1.60;62.31;100706.91;5056399;28;20114;-79
2021/12/25 11:42:46;;;;;;;1.85;0.60;;;;;;;1.61;61.87;100708.56;5079448;28;20043;-79
2021/12/25 11:45:40;;;;;;;1.25;0.50;;;;;;;1.64;62.10;100708.13;5082430;28;20024;-79
2021/12/25 11:48:13;;;;;;;0.65;0.40;;;;;;;1.68;61.86;100720.06;5078994;28;20448;-77
2021/12/25 11:50:41;;;;;;;2.50;0.50;;;;;;;1.71;61.93;100713.44;5083195;28;20057;-79
2021/12/25 11:54:06;;;;;;;3.92;0.70;;;;;;;1.76;62.03;100706.38;5081468;28;20115;-80
2021/12/25 11:58:58;;;;;;;2.50;0.70;;;;;;;1.90;61.33;100711.66;5081619;28;20024;-78
2021/12/25 12:01:43;;;;;;;2.72;0.40;;;;;;;1.92;61.74;100720.34;5083074;28;20024;-80
2021/12/25 12:04:11;;;;;;;1.52;0.40;;;;;;;1.97;62.26;100718.63;5086731;28;20027;-80
2021/12/25 12:06:46;;;;;;;1.20;0.63;;;;;;;2.01;61.55;100719.03;5081874;28;20078;-79
2021/12/25 12:09:17;;;;;;;2.78;0.45;;;;;;;2.01;61.98;100724.41;5082007;28;20463;-78
2021/12/25 12:11:45;;;;;;;1.60;0.60;;;;;;;2.06;61.75;100715.69;5085003;28;20863;-78
2021/12/25 12:14:13;;;;;;;2.70;1.05;;;;;;;2.08;61.65;100711.72;5085101;28;20070;-79
2021/12/25 12:16:42;;;;;;;1.65;0.52;;;;;;;2.15;61.55;100715.16;5081391;28;20952;-81
2021/12/25 12:19:28;;;;;;;1.42;0.40;;;;;;;2.20;61.81;100718.03;5079631;28;20077;-78
2021/12/25 12:21:53;;;;;;;1.30;0.50;;;;;;;2.27;61.81;100722.56;5080257;28;20052;-78
2021/12/25 12:24:40;;;;;;;2.22;0.60;;;;;;;2.32;61.39;100717.31;5070737;28;20138;-78
2021/12/25 12:27:05;;;;;;;3.65;0.65;;;;;;;2.38;61.07;100714.56;5084238;28;20170;-78
2021/12/25 12:29:37;;;;;;;0.70;0.30;;;;;;;2.43;61.64;100711.22;5071055;28;20032;-78
2021/12/25 12:32:04;;;;;;;4.20;0.40;;;;;;;2.42;60.85;100709.56;5085759;28;20028;-78
2021/12/25 12:34:29;;;;;;;1.25;0.40;;;;;;;2.44;60.82;100713.69;5077291;28;20872;-78
2021/12/25 12:37:13;;;;;;;3.20;0.50;;;;;;;2.47;60.82;100720.47;5087802;28;20039;-78
2021/12/25 12:39:42;;;;;;;7.35;0.63;;;;;;;2.48;60.81;100714.03;5083626;28;20028;-78
2021/12/25 12:42:11;;;;;;;6.25;0.40;;;;;;;2.54;60.90;100723.94;5083876;28;20029;-78